METAR Formatted Surface Weather Observation
Issued by NWS

Home | Current Version | Previous Version | Text Only | Print | Product List | Glossary On
Versions: 1 2 3 4 5 6 7 8 9 10
000
SAUS44 KBMX 012255
MTRHEY
METAR KHEY 012253Z AUTO 11005KT 10SM CLR 32/17 A3002 RMK AO2 SLP053
T03220172



USA.gov is the U.S. government's official web portal to all federal, state and local government web resources and services.